sensor_id;sensor_type;location;lat;lon;timestamp;P1;durP1;ratioP1;P2;durP2;ratioP2
1999;SDS011;1001;48.87406500;9.59633600;2022-08-14T00:02:07;3.53;;;2.27;;
1999;SDS011;1001;48.87406500;9.59633600;2022-08-14T00:04:34;2.40;;;2.20;;
1999;SDS011;1001;48.87406500;9.59633600;2022-08-14T00:07:01;2.50;;;2.00;;
1999;SDS011;1001;48.87406500;9.59633600;2022-08-14T00:09:28;2.30;;;2.10;;
1999;SDS011;1001;48.87406500;9.59633600;2022-08-14T00:11:56;2.97;;;2.77;;
1999;SDS011;1001;48.87406500;9.59633600;2022-08-14T00:14:26;2.60;;;2.40;;
1999;SDS011;1001;48.87406500;9.59633600;2022-08-14T00:16:53;2.60;;;2.40;;
1999;SDS011;1001;48.87406500;9.59633600;2022-08-14T00:19:20;5.17;;;1.90;;
1999;SDS011;1001;48.87406500;9.59633600;2022-08-14T00:21:47;2.57;;;2.37;;
1999;SDS011;1001;48.87406500;9.59633600;2022-08-14T00:24:14;1.77;;;1.67;;
1999;SDS011;1001;48.87406500;9.59633600;2022-08-14T00:26:41;2.90;;;2.30;;
1999;SDS011;1001;48.87406500;9.59633600;2022-08-14T00:29:07;2.80;;;2.57;;
1999;SDS011;1001;48.87406500;9.59633600;2022-08-14T00:31:35;2.83;;;2.63;;
1999;SDS011;1001;48.87406500;9.59633600;2022-08-14T00:34:02;2.60;;;2.40;;
1999;SDS011;1001;48.87406500;9.59633600;2022-08-14T00:36:29;2.30;;;2.10;;
1999;SDS011;1001;48.87406500;9.59633600;2022-08-14T00:38:56;2.47;;;2.20;;
1999;SDS011;1001;48.87406500;9.59633600;2022-08-14T00:41:22;2.33;;;2.23;;
1999;SDS011;1001;48.87406500;9.59633600;2022-08-14T00:43:55;2.20;;;2.03;;
1999;SDS011;1001;48.87406500;9.59633600;2022-08-14T00:46:21;3.33;;;1.97;;
1999;SDS011;1001;48.87406500;9.59633600;2022-08-14T00:48:49;2.57;;;2.37;;
1999;SDS011;1001;48.87406500;9.59633600;2022-08-14T00:51:16;2.60;;;2.40;;
1999;SDS011;1001;48.87406500;9.59633600;2022-08-14T00:53:43;2.50;;;2.30;;
1999;SDS011;1001;48.87406500;9.59633600;2022-08-14T00:56:10;2.93;;;2.50;;
1999;SDS011;1001;48.87406500;9.59633600;2022-08-14T00:58:37;2.37;;;2.17;;
1999;SDS011;1001;48.87406500;9.59633600;2022-08-14T01:01:06;2.07;;;1.87;;
1999;SDS011;1001;48.87406500;9.59633600;2022-08-14T01:03:35;2.73;;;2.53;;
1999;SDS011;1001;48.87406500;9.59633600;2022-08-14T01:06:06;3.10;;;2.23;;
1999;SDS011;1001;48.87406500;9.59633600;2022-08-14T01:08:34;2.60;;;2.40;;
1999;SDS011;1001;48.87406500;9.59633600;2022-08-14T01:11:02;2.60;;;2.40;;
1999;SDS011;1001;48.87406500;9.59633600;2022-08-14T01:13:34;3.40;;;2.40;;
1999;SDS011;1001;48.87406500;9.59633600;2022-08-14T01:16:03;3.20;;;2.43;;
1999;SDS011;1001;48.87406500;9.59633600;2022-08-14T01:18:32;3.43;;;2.47;;
1999;SDS011;1001;48.87406500;9.59633600;2022-08-14T01:21:20;2.60;;;2.40;;
1999;SDS011;1001;48.87406500;9.59633600;2022-08-14T01:23:49;6.70;;;2.73;;
1999;SDS011;1001;48.87406500;9.59633600;2022-08-14T01:26:19;3.23;;;2.30;;
1999;SDS011;1001;48.87406500;9.59633600;2022-08-14T01:28:48;2.50;;;2.30;;
1999;SDS011;1001;48.87406500;9.59633600;2022-08-14T01:31:20;3.30;;;2.50;;
1999;SDS011;1001;48.87406500;9.59633600;2022-08-14T01:33:49;3.47;;;2.40;;
1999;SDS011;1001;48.87406500;9.59633600;2022-08-14T01:36:21;2.53;;;2.33;;
1999;SDS011;1001;48.87406500;9.59633600;2022-08-14T01:38:49;2.40;;;2.20;;
1999;SDS011;1001;48.87406500;9.59633600;2022-08-14T01:41:20;2.43;;;2.23;;
1999;SDS011;1001;48.87406500;9.59633600;2022-08-14T01:43:49;2.47;;;2.27;;
1999;SDS011;1001;48.87406500;9.59633600;2022-08-14T01:46:17;3.00;;;2.50;;
1999;SDS011;1001;48.87406500;9.59633600;2022-08-14T01:48:46;2.80;;;2.60;;
1999;SDS011;1001;48.87406500;9.59633600;2022-08-14T01:51:16;2.80;;;2.60;;
1999;SDS011;1001;48.87406500;9.59633600;2022-08-14T01:53:48;3.60;;;2.80;;
1999;SDS011;1001;48.87406500;9.59633600;2022-08-14T01:56:18;3.13;;;2.93;;
1999;SDS011;1001;48.87406500;9.59633600;2022-08-14T01:58:46;3.10;;;2.67;;
1999;SDS011;1001;48.87406500;9.59633600;2022-08-14T02:01:14;2.67;;;2.47;;
1999;SDS011;1001;48.87406500;9.59633600;2022-08-14T02:03:42;3.50;;;2.60;;
1999;SDS011;1001;48.87406500;9.59633600;2022-08-14T02:06:09;2.83;;;2.63;;
1999;SDS011;1001;48.87406500;9.59633600;2022-08-14T02:08:37;2.63;;;2.43;;
1999;SDS011;1001;48.87406500;9.59633600;2022-08-14T02:11:07;3.53;;;2.60;;
1999;SDS011;1001;48.87406500;9.59633600;2022-08-14T02:13:48;2.70;;;2.40;;
1999;SDS011;1001;48.87406500;9.59633600;2022-08-14T02:16:18;3.37;;;3.07;;
1999;SDS011;1001;48.87406500;9.59633600;2022-08-14T02:18:49;2.70;;;2.50;;
1999;SDS011;1001;48.87406500;9.59633600;2022-08-14T02:21:16;3.67;;;2.53;;
1999;SDS011;1001;48.87406500;9.59633600;2022-08-14T02:23:44;4.37;;;2.60;;
1999;SDS011;1001;48.87406500;9.59633600;2022-08-14T02:26:17;3.77;;;2.33;;
1999;SDS011;1001;48.87406500;9.59633600;2022-08-14T02:28:46;3.37;;;3.07;;
1999;SDS011;1001;48.87406500;9.59633600;2022-08-14T02:31:15;5.73;;;2.70;;
1999;SDS011;1001;48.87406500;9.59633600;2022-08-14T02:33:42;3.83;;;2.60;;
1999;SDS011;1001;48.87406500;9.59633600;2022-08-14T02:36:09;2.60;;;2.40;;
1999;SDS011;1001;48.87406500;9.59633600;2022-08-14T02:38:37;2.73;;;2.43;;
1999;SDS011;1001;48.87406500;9.59633600;2022-08-14T02:41:06;3.70;;;2.13;;
1999;SDS011;1001;48.87406500;9.59633600;2022-08-14T02:43:35;2.80;;;2.53;;
1999;SDS011;1001;48.87406500;9.59633600;2022-08-14T02:46:03;2.60;;;2.40;;
1999;SDS011;1001;48.87406500;9.59633600;2022-08-14T02:48:33;2.57;;;2.40;;
1999;SDS011;1001;48.87406500;9.59633600;2022-08-14T02:51:00;4.30;;;2.53;;
1999;SDS011;1001;48.87406500;9.59633600;2022-08-14T02:53:31;2.33;;;2.13;;
1999;SDS011;1001;48.87406500;9.59633600;2022-08-14T02:55:59;2.60;;;2.40;;
1999;SDS011;1001;48.87406500;9.59633600;2022-08-14T02:58:26;2.60;;;2.40;;
1999;SDS011;1001;48.87406500;9.59633600;2022-08-14T03:00:56;2.70;;;2.40;;
1999;SDS011;1001;48.87406500;9.59633600;2022-08-14T03:03:23;3.00;;;2.47;;
1999;SDS011;1001;48.87406500;9.59633600;2022-08-14T03:05:50;2.70;;;2.50;;
1999;SDS011;1001;48.87406500;9.59633600;2022-08-14T03:08:17;2.60;;;2.40;;
1999;SDS011;1001;48.87406500;9.59633600;2022-08-14T03:10:45;2.77;;;2.57;;
1999;SDS011;1001;48.87406500;9.59633600;2022-08-14T03:13:12;3.87;;;3.23;;
1999;SDS011;1001;48.87406500;9.59633600;2022-08-14T03:15:39;4.23;;;2.50;;
1999;SDS011;1001;48.87406500;9.59633600;2022-08-14T03:18:10;4.93;;;2.90;;
1999;SDS011;1001;48.87406500;9.59633600;2022-08-14T03:20:38;3.03;;;2.73;;
1999;SDS011;1001;48.87406500;9.59633600;2022-08-14T03:23:05;2.67;;;2.47;;
1999;SDS011;1001;48.87406500;9.59633600;2022-08-14T03:25:32;2.40;;;2.20;;
1999;SDS011;1001;48.87406500;9.59633600;2022-08-14T03:28:00;3.00;;;2.10;;
1999;SDS011;1001;48.87406500;9.59633600;2022-08-14T03:30:28;2.83;;;2.47;;
1999;SDS011;1001;48.87406500;9.59633600;2022-08-14T03:32:56;2.70;;;2.50;;
1999;SDS011;1001;48.87406500;9.59633600;2022-08-14T03:35:24;2.53;;;2.33;;
1999;SDS011;1001;48.87406500;9.59633600;2022-08-14T03:37:52;2.77;;;2.47;;
1999;SDS011;1001;48.87406500;9.59633600;2022-08-14T03:40:19;3.97;;;2.63;;
1999;SDS011;1001;48.87406500;9.59633600;2022-08-14T03:42:46;3.63;;;2.80;;
1999;SDS011;1001;48.87406500;9.59633600;2022-08-14T03:45:14;3.00;;;2.70;;
1999;SDS011;1001;48.87406500;9.59633600;2022-08-14T03:47:41;3.00;;;2.70;;
1999;SDS011;1001;48.87406500;9.59633600;2022-08-14T03:50:08;3.20;;;2.90;;
1999;SDS011;1001;48.87406500;9.59633600;2022-08-14T03:52:37;3.40;;;2.43;;
1999;SDS011;1001;48.87406500;9.59633600;2022-08-14T03:55:05;3.00;;;2.80;;
1999;SDS011;1001;48.87406500;9.59633600;2022-08-14T03:57:32;3.70;;;3.03;;
1999;SDS011;1001;48.87406500;9.59633600;2022-08-14T04:00:00;4.60;;;2.80;;
1999;SDS011;1001;48.87406500;9.59633600;2022-08-14T04:02:30;2.73;;;2.53;;
1999;SDS011;1001;48.87406500;9.59633600;2022-08-14T04:04:57;3.83;;;2.60;;
1999;SDS011;1001;48.87406500;9.59633600;2022-08-14T04:07:24;3.47;;;2.60;;
1999;SDS011;1001;48.87406500;9.59633600;2022-08-14T04:09:52;3.90;;;3.03;;
1999;SDS011;1001;48.87406500;9.59633600;2022-08-14T04:12:19;2.67;;;2.37;;
1999;SDS011;1001;48.87406500;9.59633600;2022-08-14T04:14:45;2.53;;;2.33;;
1999;SDS011;1001;48.87406500;9.59633600;2022-08-14T04:17:12;2.80;;;2.60;;
1999;SDS011;1001;48.87406500;9.59633600;2022-08-14T04:19:39;2.40;;;2.20;;
1999;SDS011;1001;48.87406500;9.59633600;2022-08-14T04:22:05;2.70;;;2.50;;
1999;SDS011;1001;48.87406500;9.59633600;2022-08-14T04:24:32;2.33;;;2.13;;
1999;SDS011;1001;48.87406500;9.59633600;2022-08-14T04:27:00;5.00;;;2.90;;
1999;SDS011;1001;48.87406500;9.59633600;2022-08-14T04:29:27;2.67;;;2.47;;
1999;SDS011;1001;48.87406500;9.59633600;2022-08-14T04:31:54;2.90;;;2.70;;
1999;SDS011;1001;48.87406500;9.59633600;2022-08-14T04:34:20;3.00;;;2.70;;
1999;SDS011;1001;48.87406500;9.59633600;2022-08-14T04:36:47;2.60;;;2.40;;
1999;SDS011;1001;48.87406500;9.59633600;2022-08-14T04:39:31;3.30;;;2.93;;
1999;SDS011;1001;48.87406500;9.59633600;2022-08-14T04:42:16;3.03;;;2.80;;
1999;SDS011;1001;48.87406500;9.59633600;2022-08-14T04:45:00;3.30;;;3.00;;
1999;SDS011;1001;48.87406500;9.59633600;2022-08-14T04:47:27;2.87;;;2.67;;
1999;SDS011;1001;48.87406500;9.59633600;2022-08-14T04:50:11;2.70;;;2.50;;
1999;SDS011;1001;48.87406500;9.59633600;2022-08-14T04:52:38;3.60;;;2.73;;
1999;SDS011;1001;48.87406500;9.59633600;2022-08-14T04:55:05;2.57;;;2.37;;
1999;SDS011;1001;48.87406500;9.59633600;2022-08-14T04:57:33;4.03;;;2.70;;
1999;SDS011;1001;48.87406500;9.59633600;2022-08-14T05:00:00;3.07;;;2.87;;
1999;SDS011;1001;48.87406500;9.59633600;2022-08-14T05:02:27;2.87;;;2.57;;
1999;SDS011;1001;48.87406500;9.59633600;2022-08-14T05:04:53;5.40;;;3.17;;
1999;SDS011;1001;48.87406500;9.59633600;2022-08-14T05:07:20;2.60;;;2.40;;
1999;SDS011;1001;48.87406500;9.59633600;2022-08-14T05:09:47;2.37;;;2.10;;
1999;SDS011;1001;48.87406500;9.59633600;2022-08-14T05:12:13;2.70;;;2.50;;
1999;SDS011;1001;48.87406500;9.59633600;2022-08-14T05:14:41;2.87;;;2.53;;
1999;SDS011;1001;48.87406500;9.59633600;2022-08-14T05:17:08;3.03;;;2.10;;
1999;SDS011;1001;48.87406500;9.59633600;2022-08-14T05:19:35;2.27;;;2.17;;
1999;SDS011;1001;48.87406500;9.59633600;2022-08-14T05:22:02;3.37;;;3.10;;
1999;SDS011;1001;48.87406500;9.59633600;2022-08-14T05:24:28;3.03;;;2.60;;
1999;SDS011;1001;48.87406500;9.59633600;2022-08-14T05:26:55;3.30;;;2.80;;
1999;SDS011;1001;48.87406500;9.59633600;2022-08-14T05:29:22;7.23;;;3.00;;
1999;SDS011;1001;48.87406500;9.59633600;2022-08-14T05:31:50;7.00;;;3.10;;
1999;SDS011;1001;48.87406500;9.59633600;2022-08-14T05:34:20;4.23;;;2.60;;
1999;SDS011;1001;48.87406500;9.59633600;2022-08-14T05:36:47;2.97;;;2.60;;
1999;SDS011;1001;48.87406500;9.59633600;2022-08-14T05:39:15;2.80;;;2.60;;
1999;SDS011;1001;48.87406500;9.59633600;2022-08-14T05:41:42;3.40;;;3.13;;
1999;SDS011;1001;48.87406500;9.59633600;2022-08-14T05:44:08;3.33;;;3.10;;
1999;SDS011;1001;48.87406500;9.59633600;2022-08-14T05:46:36;3.10;;;2.67;;
1999;SDS011;1001;48.87406500;9.59633600;2022-08-14T05:49:04;3.40;;;3.10;;
1999;SDS011;1001;48.87406500;9.59633600;2022-08-14T05:51:31;4.07;;;2.80;;
1999;SDS011;1001;48.87406500;9.59633600;2022-08-14T05:53:57;3.40;;;3.10;;
1999;SDS011;1001;48.87406500;9.59633600;2022-08-14T05:56:24;3.07;;;2.77;;
1999;SDS011;1001;48.87406500;9.59633600;2022-08-14T05:58:51;3.17;;;2.97;;
1999;SDS011;1001;48.87406500;9.59633600;2022-08-14T06:01:17;4.37;;;2.90;;
1999;SDS011;1001;48.87406500;9.59633600;2022-08-14T06:03:44;3.73;;;3.27;;
1999;SDS011;1001;48.87406500;9.59633600;2022-08-14T06:06:12;3.30;;;3.10;;
1999;SDS011;1001;48.87406500;9.59633600;2022-08-14T06:08:39;2.93;;;2.73;;
1999;SDS011;1001;48.87406500;9.59633600;2022-08-14T06:11:06;3.23;;;3.03;;
1999;SDS011;1001;48.87406500;9.59633600;2022-08-14T06:13:34;3.17;;;2.87;;
1999;SDS011;1001;48.87406500;9.59633600;2022-08-14T06:16:02;3.00;;;2.80;;
1999;SDS011;1001;48.87406500;9.59633600;2022-08-14T06:18:29;4.83;;;3.07;;
1999;SDS011;1001;48.87406500;9.59633600;2022-08-14T06:20:57;3.03;;;2.83;;
1999;SDS011;1001;48.87406500;9.59633600;2022-08-14T06:23:25;3.93;;;2.33;;
1999;SDS011;1001;48.87406500;9.59633600;2022-08-14T06:25:51;5.03;;;2.87;;
1999;SDS011;1001;48.87406500;9.59633600;2022-08-14T06:28:19;2.70;;;2.50;;
1999;SDS011;1001;48.87406500;9.59633600;2022-08-14T06:30:47;2.87;;;2.53;;
1999;SDS011;1001;48.87406500;9.59633600;2022-08-14T06:33:14;3.90;;;2.73;;
1999;SDS011;1001;48.87406500;9.59633600;2022-08-14T06:35:42;2.70;;;2.50;;
1999;SDS011;1001;48.87406500;9.59633600;2022-08-14T06:38:12;2.73;;;2.30;;
1999;SDS011;1001;48.87406500;9.59633600;2022-08-14T06:40:41;2.40;;;2.20;;
1999;SDS011;1001;48.87406500;9.59633600;2022-08-14T06:43:08;3.67;;;2.47;;
1999;SDS011;1001;48.87406500;9.59633600;2022-08-14T06:45:38;2.80;;;2.57;;
1999;SDS011;1001;48.87406500;9.59633600;2022-08-14T06:48:11;3.17;;;2.23;;
1999;SDS011;1001;48.87406500;9.59633600;2022-08-14T06:50:40;2.80;;;2.27;;
1999;SDS011;1001;48.87406500;9.59633600;2022-08-14T06:53:07;2.50;;;2.03;;
1999;SDS011;1001;48.87406500;9.59633600;2022-08-14T06:55:34;2.77;;;2.10;;
1999;SDS011;1001;48.87406500;9.59633600;2022-08-14T06:58:02;9.70;;;2.57;;
1999;SDS011;1001;48.87406500;9.59633600;2022-08-14T07:00:29;3.60;;;2.37;;
1999;SDS011;1001;48.87406500;9.59633600;2022-08-14T07:02:56;2.40;;;2.20;;
1999;SDS011;1001;48.87406500;9.59633600;2022-08-14T07:05:40;2.10;;;2.00;;
1999;SDS011;1001;48.87406500;9.59633600;2022-08-14T07:08:14;3.27;;;2.00;;
1999;SDS011;1001;48.87406500;9.59633600;2022-08-14T07:10:43;2.60;;;1.97;;
1999;SDS011;1001;48.87406500;9.59633600;2022-08-14T07:13:12;3.97;;;2.17;;
1999;SDS011;1001;48.87406500;9.59633600;2022-08-14T07:15:39;2.27;;;2.07;;
1999;SDS011;1001;48.87406500;9.59633600;2022-08-14T07:18:09;3.10;;;2.53;;
1999;SDS011;1001;48.87406500;9.59633600;2022-08-14T07:20:36;6.20;;;2.20;;
1999;SDS011;1001;48.87406500;9.59633600;2022-08-14T07:23:04;2.83;;;2.00;;
1999;SDS011;1001;48.87406500;9.59633600;2022-08-14T07:25:32;5.73;;;2.40;;
1999;SDS011;1001;48.87406500;9.59633600;2022-08-14T07:28:00;4.30;;;2.20;;
1999;SDS011;1001;48.87406500;9.59633600;2022-08-14T07:30:34;2.70;;;2.50;;
1999;SDS011;1001;48.87406500;9.59633600;2022-08-14T07:33:01;2.30;;;2.20;;
1999;SDS011;1001;48.87406500;9.59633600;2022-08-14T07:35:28;2.33;;;2.13;;
1999;SDS011;1001;48.87406500;9.59633600;2022-08-14T07:37:55;2.50;;;2.37;;
1999;SDS011;1001;48.87406500;9.59633600;2022-08-14T07:40:22;2.50;;;2.30;;
1999;SDS011;1001;48.87406500;9.59633600;2022-08-14T07:42:48;4.23;;;2.27;;
1999;SDS011;1001;48.87406500;9.59633600;2022-08-14T07:45:15;4.60;;;2.37;;
1999;SDS011;1001;48.87406500;9.59633600;2022-08-14T07:47:43;2.53;;;2.33;;
1999;SDS011;1001;48.87406500;9.59633600;2022-08-14T07:50:11;2.23;;;2.03;;
1999;SDS011;1001;48.87406500;9.59633600;2022-08-14T07:52:39;2.67;;;2.47;;
1999;SDS011;1001;48.87406500;9.59633600;2022-08-14T07:55:08;2.20;;;2.00;;
1999;SDS011;1001;48.87406500;9.59633600;2022-08-14T07:57:36;2.10;;;2.00;;
1999;SDS011;1001;48.87406500;9.59633600;2022-08-14T08:00:05;3.80;;;2.27;;
1999;SDS011;1001;48.87406500;9.59633600;2022-08-14T08:02:37;2.50;;;2.30;;
1999;SDS011;1001;48.87406500;9.59633600;2022-08-14T08:05:08;2.13;;;2.03;;
1999;SDS011;1001;48.87406500;9.59633600;2022-08-14T08:07:35;2.60;;;2.40;;
1999;SDS011;1001;48.87406500;9.59633600;2022-08-14T08:10:05;2.20;;;2.00;;
1999;SDS011;1001;48.87406500;9.59633600;2022-08-14T08:12:47;2.57;;;2.37;;
1999;SDS011;1001;48.87406500;9.59633600;2022-08-14T08:15:15;3.17;;;2.97;;
1999;SDS011;1001;48.87406500;9.59633600;2022-08-14T08:17:43;2.10;;;1.90;;
1999;SDS011;1001;48.87406500;9.59633600;2022-08-14T08:20:15;2.23;;;2.03;;
1999;SDS011;1001;48.87406500;9.59633600;2022-08-14T08:22:44;2.20;;;2.00;;
1999;SDS011;1001;48.87406500;9.59633600;2022-08-14T08:25:10;3.20;;;2.57;;
1999;SDS011;1001;48.87406500;9.59633600;2022-08-14T08:27:38;2.47;;;2.27;;
1999;SDS011;1001;48.87406500;9.59633600;2022-08-14T08:30:05;2.20;;;2.10;;
1999;SDS011;1001;48.87406500;9.59633600;2022-08-14T08:32:37;3.07;;;2.73;;
1999;SDS011;1001;48.87406500;9.59633600;2022-08-14T08:35:08;2.80;;;2.60;;
1999;SDS011;1001;48.87406500;9.59633600;2022-08-14T08:37:37;2.77;;;2.57;;
1999;SDS011;1001;48.87406500;9.59633600;2022-08-14T08:40:04;2.87;;;2.67;;
1999;SDS011;1001;48.87406500;9.59633600;2022-08-14T08:42:31;3.43;;;3.20;;
1999;SDS011;1001;48.87406500;9.59633600;2022-08-14T08:44:58;3.20;;;3.00;;
1999;SDS011;1001;48.87406500;9.59633600;2022-08-14T08:47:24;3.53;;;3.30;;
1999;SDS011;1001;48.87406500;9.59633600;2022-08-14T08:49:51;4.83;;;3.00;;
1999;SDS011;1001;48.87406500;9.59633600;2022-08-14T08:52:18;3.23;;;3.03;;
1999;SDS011;1001;48.87406500;9.59633600;2022-08-14T08:54:53;3.80;;;3.50;;
1999;SDS011;1001;48.87406500;9.59633600;2022-08-14T08:57:19;3.60;;;3.33;;
1999;SDS011;1001;48.87406500;9.59633600;2022-08-14T08:59:46;3.80;;;3.03;;
1999;SDS011;1001;48.87406500;9.59633600;2022-08-14T09:02:14;3.60;;;3.30;;
1999;SDS011;1001;48.87406500;9.59633600;2022-08-14T09:04:43;3.80;;;3.07;;
1999;SDS011;1001;48.87406500;9.59633600;2022-08-14T09:07:09;4.33;;;2.83;;
1999;SDS011;1001;48.87406500;9.59633600;2022-08-14T09:09:37;3.93;;;3.10;;
1999;SDS011;1001;48.87406500;9.59633600;2022-08-14T09:12:16;3.60;;;3.30;;
1999;SDS011;1001;48.87406500;9.59633600;2022-08-14T09:14:45;4.53;;;3.63;;
1999;SDS011;1001;48.87406500;9.59633600;2022-08-14T09:17:13;3.90;;;3.60;;
1999;SDS011;1001;48.87406500;9.59633600;2022-08-14T09:19:40;4.07;;;3.27;;
1999;SDS011;1001;48.87406500;9.59633600;2022-08-14T09:22:07;4.13;;;3.20;;
1999;SDS011;1001;48.87406500;9.59633600;2022-08-14T09:24:35;4.73;;;3.33;;
1999;SDS011;1001;48.87406500;9.59633600;2022-08-14T09:27:02;5.50;;;3.73;;
1999;SDS011;1001;48.87406500;9.59633600;2022-08-14T09:29:30;3.30;;;3.10;;
1999;SDS011;1001;48.87406500;9.59633600;2022-08-14T09:31:57;5.10;;;3.27;;
1999;SDS011;1001;48.87406500;9.59633600;2022-08-14T09:34:39;3.90;;;3.13;;
1999;SDS011;1001;48.87406500;9.59633600;2022-08-14T09:37:22;3.60;;;3.30;;
1999;SDS011;1001;48.87406500;9.59633600;2022-08-14T09:40:02;4.00;;;3.60;;
1999;SDS011;1001;48.87406500;9.59633600;2022-08-14T09:42:43;3.73;;;3.37;;
1999;SDS011;1001;48.87406500;9.59633600;2022-08-14T09:45:19;4.20;;;3.20;;
1999;SDS011;1001;48.87406500;9.59633600;2022-08-14T09:47:55;3.83;;;3.40;;
1999;SDS011;1001;48.87406500;9.59633600;2022-08-14T09:50:23;4.13;;;3.63;;
1999;SDS011;1001;48.87406500;9.59633600;2022-08-14T09:52:53;3.97;;;3.67;;
1999;SDS011;1001;48.87406500;9.59633600;2022-08-14T09:55:22;4.50;;;4.10;;
1999;SDS011;1001;48.87406500;9.59633600;2022-08-14T09:57:50;8.83;;;4.00;;
1999;SDS011;1001;48.87406500;9.59633600;2022-08-14T10:00:21;4.23;;;3.83;;
1999;SDS011;1001;48.87406500;9.59633600;2022-08-14T10:03:07;4.00;;;3.70;;
1999;SDS011;1001;48.87406500;9.59633600;2022-08-14T10:05:34;4.23;;;3.93;;
1999;SDS011;1001;48.87406500;9.59633600;2022-08-14T10:08:03;4.13;;;3.73;;
1999;SDS011;1001;48.87406500;9.59633600;2022-08-14T10:10:31;4.20;;;3.80;;
1999;SDS011;1001;48.87406500;9.59633600;2022-08-14T10:13:00;3.87;;;3.57;;
1999;SDS011;1001;48.87406500;9.59633600;2022-08-14T10:15:30;4.47;;;4.17;;
1999;SDS011;1001;48.87406500;9.59633600;2022-08-14T10:18:04;3.83;;;3.43;;
1999;SDS011;1001;48.87406500;9.59633600;2022-08-14T10:20:35;4.63;;;4.20;;
1999;SDS011;1001;48.87406500;9.59633600;2022-08-14T10:23:12;3.80;;;3.50;;
1999;SDS011;1001;48.87406500;9.59633600;2022-08-14T10:25:41;3.93;;;3.53;;
1999;SDS011;1001;48.87406500;9.59633600;2022-08-14T10:28:10;4.13;;;3.83;;
1999;SDS011;1001;48.87406500;9.59633600;2022-08-14T10:30:41;3.87;;;3.20;;
1999;SDS011;1001;48.87406500;9.59633600;2022-08-14T10:33:22;3.93;;;3.53;;
1999;SDS011;1001;48.87406500;9.59633600;2022-08-14T10:35:50;6.03;;;3.33;;
1999;SDS011;1001;48.87406500;9.59633600;2022-08-14T10:38:24;3.70;;;3.50;;
1999;SDS011;1001;48.87406500;9.59633600;2022-08-14T10:40:52;4.30;;;3.90;;
1999;SDS011;1001;48.87406500;9.59633600;2022-08-14T10:43:19;3.90;;;3.60;;
1999;SDS011;1001;48.87406500;9.59633600;2022-08-14T10:45:54;3.70;;;3.40;;
1999;SDS011;1001;48.87406500;9.59633600;2022-08-14T10:48:23;4.13;;;3.73;;
1999;SDS011;1001;48.87406500;9.59633600;2022-08-14T10:50:50;3.50;;;3.20;;
1999;SDS011;1001;48.87406500;9.59633600;2022-08-14T10:53:27;4.57;;;4.27;;
1999;SDS011;1001;48.87406500;9.59633600;2022-08-14T10:55:56;3.93;;;3.70;;
1999;SDS011;1001;48.87406500;9.59633600;2022-08-14T10:58:26;4.53;;;4.13;;
1999;SDS011;1001;48.87406500;9.59633600;2022-08-14T11:00:55;3.83;;;3.60;;
1999;SDS011;1001;48.87406500;9.59633600;2022-08-14T11:03:23;4.77;;;4.00;;
1999;SDS011;1001;48.87406500;9.59633600;2022-08-14T11:05:50;4.80;;;4.40;;
1999;SDS011;1001;48.87406500;9.59633600;2022-08-14T11:08:28;3.87;;;3.53;;
1999;SDS011;1001;48.87406500;9.59633600;2022-08-14T11:10:57;4.40;;;4.00;;
1999;SDS011;1001;48.87406500;9.59633600;2022-08-14T11:13:27;4.70;;;4.30;;
1999;SDS011;1001;48.87406500;9.59633600;2022-08-14T11:15:57;4.10;;;3.70;;
1999;SDS011;1001;48.87406500;9.59633600;2022-08-14T11:18:26;4.13;;;3.40;;
1999;SDS011;1001;48.87406500;9.59633600;2022-08-14T11:20:56;3.93;;;3.63;;
1999;SDS011;1001;48.87406500;9.59633600;2022-08-14T11:23:25;4.47;;;4.10;;
1999;SDS011;1001;48.87406500;9.59633600;2022-08-14T11:25:55;5.73;;;3.70;;
1999;SDS011;1001;48.87406500;9.59633600;2022-08-14T11:28:23;4.00;;;3.70;;
1999;SDS011;1001;48.87406500;9.59633600;2022-08-14T11:30:51;4.50;;;4.00;;
1999;SDS011;1001;48.87406500;9.59633600;2022-08-14T11:33:22;4.30;;;3.53;;
1999;SDS011;1001;48.87406500;9.59633600;2022-08-14T11:35:49;4.40;;;4.00;;
1999;SDS011;1001;48.87406500;9.59633600;2022-08-14T11:38:16;3.97;;;3.67;;
1999;SDS011;1001;48.87406500;9.59633600;2022-08-14T11:40:45;3.17;;;2.87;;
1999;SDS011;1001;48.87406500;9.59633600;2022-08-14T11:43:13;3.87;;;3.57;;
1999;SDS011;1001;48.87406500;9.59633600;2022-08-14T11:45:43;3.77;;;3.47;;
1999;SDS011;1001;48.87406500;9.59633600;2022-08-14T11:48:15;5.00;;;3.67;;
1999;SDS011;1001;48.87406500;9.59633600;2022-08-14T11:50:45;3.53;;;3.23;;
1999;SDS011;1001;48.87406500;9.59633600;2022-08-14T11:53:20;11.73;;;4.20;;
1999;SDS011;1001;48.87406500;9.59633600;2022-08-14T11:55:53;4.10;;;3.80;;
1999;SDS011;1001;48.87406500;9.59633600;2022-08-14T11:58:24;3.40;;;3.10;;
1999;SDS011;1001;48.87406500;9.59633600;2022-08-14T12:00:53;3.40;;;3.20;;
1999;SDS011;1001;48.87406500;9.59633600;2022-08-14T12:03:22;3.33;;;3.03;;
1999;SDS011;1001;48.87406500;9.59633600;2022-08-14T12:06:03;4.20;;;3.80;;
1999;SDS011;1001;48.87406500;9.59633600;2022-08-14T12:08:32;4.10;;;3.70;;
1999;SDS011;1001;48.87406500;9.59633600;2022-08-14T12:10:59;3.60;;;3.40;;
1999;SDS011;1001;48.87406500;9.59633600;2022-08-14T12:13:27;3.87;;;3.57;;
1999;SDS011;1001;48.87406500;9.59633600;2022-08-14T12:15:57;4.27;;;3.73;;
1999;SDS011;1001;48.87406500;9.59633600;2022-08-14T12:18:29;4.93;;;3.60;;
1999;SDS011;1001;48.87406500;9.59633600;2022-08-14T12:21:08;3.70;;;3.37;;
1999;SDS011;1001;48.87406500;9.59633600;2022-08-14T12:23:38;4.30;;;4.00;;
1999;SDS011;1001;48.87406500;9.59633600;2022-08-14T12:26:05;3.90;;;3.60;;
1999;SDS011;1001;48.87406500;9.59633600;2022-08-14T12:28:33;3.33;;;3.13;;
1999;SDS011;1001;48.87406500;9.59633600;2022-08-14T12:31:10;3.90;;;3.60;;
1999;SDS011;1001;48.87406500;9.59633600;2022-08-14T12:33:40;3.83;;;3.53;;
1999;SDS011;1001;48.87406500;9.59633600;2022-08-14T12:36:08;4.70;;;4.30;;
1999;SDS011;1001;48.87406500;9.59633600;2022-08-14T12:38:46;4.30;;;3.90;;
1999;SDS011;1001;48.87406500;9.59633600;2022-08-14T12:41:15;3.80;;;3.50;;
1999;SDS011;1001;48.87406500;9.59633600;2022-08-14T12:43:44;4.17;;;3.87;;
1999;SDS011;1001;48.87406500;9.59633600;2022-08-14T12:46:19;4.83;;;4.37;;
1999;SDS011;1001;48.87406500;9.59633600;2022-08-14T12:48:47;3.60;;;3.30;;
1999;SDS011;1001;48.87406500;9.59633600;2022-08-14T12:51:15;4.00;;;3.60;;
1999;SDS011;1001;48.87406500;9.59633600;2022-08-14T12:53:46;3.60;;;3.30;;
1999;SDS011;1001;48.87406500;9.59633600;2022-08-14T12:56:15;4.03;;;3.70;;
1999;SDS011;1001;48.87406500;9.59633600;2022-08-14T12:58:46;3.83;;;3.53;;
1999;SDS011;1001;48.87406500;9.59633600;2022-08-14T13:01:17;4.20;;;3.90;;
1999;SDS011;1001;48.87406500;9.59633600;2022-08-14T13:03:45;4.10;;;3.80;;
1999;SDS011;1001;48.87406500;9.59633600;2022-08-14T13:06:12;4.00;;;3.70;;
1999;SDS011;1001;48.87406500;9.59633600;2022-08-14T13:08:39;4.10;;;3.80;;
1999;SDS011;1001;48.87406500;9.59633600;2022-08-14T13:11:10;4.17;;;3.77;;
1999;SDS011;1001;48.87406500;9.59633600;2022-08-14T13:13:39;4.00;;;3.70;;
1999;SDS011;1001;48.87406500;9.59633600;2022-08-14T13:16:08;4.00;;;3.70;;
1999;SDS011;1001;48.87406500;9.59633600;2022-08-14T13:18:37;4.20;;;3.87;;
1999;SDS011;1001;48.87406500;9.59633600;2022-08-14T13:21:06;4.50;;;4.10;;
1999;SDS011;1001;48.87406500;9.59633600;2022-08-14T13:23:36;3.80;;;3.50;;